sensor_id;sensor_type;location;lat;lon;timestamp;temperature;humidity
5786;DHT22;2919;48.630;9.000;2023-07-30T00:01:20;17.30;99.90
5786;DHT22;2919;48.630;9.000;2023-07-30T00:03:45;17.30;99.90
5786;DHT22;2919;48.630;9.000;2023-07-30T00:06:11;17.20;99.90
5786;DHT22;2919;48.630;9.000;2023-07-30T00:08:36;17.30;99.90
5786;DHT22;2919;48.630;9.000;2023-07-30T00:11:02;17.30;99.90
5786;DHT22;2919;48.630;9.000;2023-07-30T00:13:28;17.20;99.90
5786;DHT22;2919;48.630;9.000;2023-07-30T00:15:53;17.30;99.90
5786;DHT22;2919;48.630;9.000;2023-07-30T00:18:19;17.30;99.90
5786;DHT22;2919;48.630;9.000;2023-07-30T00:20:44;17.30;99.90
5786;DHT22;2919;48.630;9.000;2023-07-30T00:23:10;17.30;99.90
5786;DHT22;2919;48.630;9.000;2023-07-30T00:25:36;17.20;99.90
5786;DHT22;2919;48.630;9.000;2023-07-30T00:28:01;17.20;99.90
5786;DHT22;2919;48.630;9.000;2023-07-30T00:30:27;17.20;99.90
5786;DHT22;2919;48.630;9.000;2023-07-30T00:32:52;17.20;99.90
5786;DHT22;2919;48.630;9.000;2023-07-30T00:35:18;17.20;99.90
5786;DHT22;2919;48.630;9.000;2023-07-30T00:37:44;17.20;99.90
5786;DHT22;2919;48.630;9.000;2023-07-30T00:40:10;17.10;99.90
5786;DHT22;2919;48.630;9.000;2023-07-30T00:42:35;17.10;99.90
5786;DHT22;2919;48.630;9.000;2023-07-30T00:45:01;17.10;99.90
5786;DHT22;2919;48.630;9.000;2023-07-30T00:47:28;17.10;99.90
5786;DHT22;2919;48.630;9.000;2023-07-30T00:49:54;17.10;99.90
5786;DHT22;2919;48.630;9.000;2023-07-30T00:52:21;17.10;99.90
5786;DHT22;2919;48.630;9.000;2023-07-30T00:54:48;17.00;99.90
5786;DHT22;2919;48.630;9.000;2023-07-30T00:57:17;17.10;99.90
5786;DHT22;2919;48.630;9.000;2023-07-30T00:59:44;17.00;99.90
5786;DHT22;2919;48.630;9.000;2023-07-30T01:02:10;17.00;99.90
5786;DHT22;2919;48.630;9.000;2023-07-30T01:04:37;17.00;99.90
5786;DHT22;2919;48.630;9.000;2023-07-30T01:07:05;17.00;99.90
5786;DHT22;2919;48.630;9.000;2023-07-30T01:09:31;17.00;99.90
5786;DHT22;2919;48.630;9.000;2023-07-30T01:11:57;16.90;99.90
5786;DHT22;2919;48.630;9.000;2023-07-30T01:14:24;16.90;99.90
5786;DHT22;2919;48.630;9.000;2023-07-30T01:16:52;16.90;99.90
5786;DHT22;2919;48.630;9.000;2023-07-30T01:19:18;16.80;99.90
5786;DHT22;2919;48.630;9.000;2023-07-30T01:21:44;16.80;99.90
5786;DHT22;2919;48.630;9.000;2023-07-30T01:24:09;16.70;99.90
5786;DHT22;2919;48.630;9.000;2023-07-30T01:26:46;16.70;99.90
5786;DHT22;2919;48.630;9.000;2023-07-30T01:29:28;16.70;99.90
5786;DHT22;2919;48.630;9.000;2023-07-30T01:32:03;16.60;99.90
5786;DHT22;2919;48.630;9.000;2023-07-30T01:34:31;16.60;99.90
5786;DHT22;2919;48.630;9.000;2023-07-30T01:37:00;16.60;99.90
5786;DHT22;2919;48.630;9.000;2023-07-30T01:39:27;16.60;99.90
5786;DHT22;2919;48.630;9.000;2023-07-30T01:41:54;16.60;99.90
5786;DHT22;2919;48.630;9.000;2023-07-30T01:44:20;16.50;99.90
5786;DHT22;2919;48.630;9.000;2023-07-30T01:46:46;16.50;99.90
5786;DHT22;2919;48.630;9.000;2023-07-30T01:49:11;16.50;99.90
5786;DHT22;2919;48.630;9.000;2023-07-30T01:51:37;16.50;99.90
5786;DHT22;2919;48.630;9.000;2023-07-30T01:54:02;16.50;99.90
5786;DHT22;2919;48.630;9.000;2023-07-30T01:56:28;16.40;99.90
5786;DHT22;2919;48.630;9.000;2023-07-30T01:58:54;16.40;99.90
5786;DHT22;2919;48.630;9.000;2023-07-30T02:01:19;16.40;99.90
5786;DHT22;2919;48.630;9.000;2023-07-30T02:03:45;16.30;99.90
5786;DHT22;2919;48.630;9.000;2023-07-30T02:06:11;16.30;99.90
5786;DHT22;2919;48.630;9.000;2023-07-30T02:08:37;16.30;99.90
5786;DHT22;2919;48.630;9.000;2023-07-30T02:11:03;16.30;99.90
5786;DHT22;2919;48.630;9.000;2023-07-30T02:13:28;16.30;99.90
5786;DHT22;2919;48.630;9.000;2023-07-30T02:15:54;16.20;99.90
5786;DHT22;2919;48.630;9.000;2023-07-30T02:18:19;16.20;99.90
5786;DHT22;2919;48.630;9.000;2023-07-30T02:20:45;16.10;99.90
5786;DHT22;2919;48.630;9.000;2023-07-30T02:23:11;16.10;99.90
5786;DHT22;2919;48.630;9.000;2023-07-30T02:25:38;16.20;99.90
5786;DHT22;2919;48.630;9.000;2023-07-30T02:28:04;16.20;99.90
5786;DHT22;2919;48.630;9.000;2023-07-30T02:30:30;16.20;99.90
5786;DHT22;2919;48.630;9.000;2023-07-30T02:32:55;16.20;99.90
5786;DHT22;2919;48.630;9.000;2023-07-30T02:35:21;16.30;99.90
5786;DHT22;2919;48.630;9.000;2023-07-30T02:37:47;16.30;99.90
5786;DHT22;2919;48.630;9.000;2023-07-30T02:40:12;16.30;99.90
5786;DHT22;2919;48.630;9.000;2023-07-30T02:42:38;16.30;99.90
5786;DHT22;2919;48.630;9.000;2023-07-30T02:45:04;16.40;99.90
5786;DHT22;2919;48.630;9.000;2023-07-30T02:47:30;16.40;99.90
5786;DHT22;2919;48.630;9.000;2023-07-30T02:49:56;16.30;99.90
5786;DHT22;2919;48.630;9.000;2023-07-30T02:52:21;16.30;99.90
5786;DHT22;2919;48.630;9.000;2023-07-30T02:54:47;16.30;99.90
5786;DHT22;2919;48.630;9.000;2023-07-30T02:57:12;16.40;99.90
5786;DHT22;2919;48.630;9.000;2023-07-30T02:59:38;16.40;99.90
5786;DHT22;2919;48.630;9.000;2023-07-30T03:02:06;16.40;99.90
5786;DHT22;2919;48.630;9.000;2023-07-30T03:04:31;16.40;99.90
5786;DHT22;2919;48.630;9.000;2023-07-30T03:06:57;16.40;99.90
5786;DHT22;2919;48.630;9.000;2023-07-30T03:09:23;16.50;99.90
5786;DHT22;2919;48.630;9.000;2023-07-30T03:11:51;16.50;99.90
5786;DHT22;2919;48.630;9.000;2023-07-30T03:14:17;16.50;99.90
5786;DHT22;2919;48.630;9.000;2023-07-30T03:16:46;16.50;99.90
5786;DHT22;2919;48.630;9.000;2023-07-30T03:19:12;16.50;99.90
5786;DHT22;2919;48.630;9.000;2023-07-30T03:21:38;16.50;99.90
5786;DHT22;2919;48.630;9.000;2023-07-30T03:24:03;16.50;99.90
5786;DHT22;2919;48.630;9.000;2023-07-30T03:26:29;16.50;99.90
5786;DHT22;2919;48.630;9.000;2023-07-30T03:28:55;16.50;99.90
5786;DHT22;2919;48.630;9.000;2023-07-30T03:31:20;16.50;99.90
5786;DHT22;2919;48.630;9.000;2023-07-30T03:33:46;16.60;99.90
5786;DHT22;2919;48.630;9.000;2023-07-30T03:36:12;16.50;99.90
5786;DHT22;2919;48.630;9.000;2023-07-30T03:38:42;16.50;99.90
5786;DHT22;2919;48.630;9.000;2023-07-30T03:41:08;16.50;99.90
5786;DHT22;2919;48.630;9.000;2023-07-30T03:43:34;16.50;99.90
5786;DHT22;2919;48.630;9.000;2023-07-30T03:46:00;16.60;99.90
5786;DHT22;2919;48.630;9.000;2023-07-30T03:48:26;16.50;99.90
5786;DHT22;2919;48.630;9.000;2023-07-30T03:50:55;16.50;99.90
5786;DHT22;2919;48.630;9.000;2023-07-30T03:53:21;16.50;99.90
5786;DHT22;2919;48.630;9.000;2023-07-30T03:55:47;16.50;99.90
5786;DHT22;2919;48.630;9.000;2023-07-30T03:58:13;16.50;99.90
5786;DHT22;2919;48.630;9.000;2023-07-30T04:00:39;16.50;99.90
5786;DHT22;2919;48.630;9.000;2023-07-30T04:03:05;16.50;99.90
5786;DHT22;2919;48.630;9.000;2023-07-30T04:05:30;16.50;99.90
5786;DHT22;2919;48.630;9.000;2023-07-30T04:07:56;16.50;99.90
5786;DHT22;2919;48.630;9.000;2023-07-30T04:10:22;16.40;99.90
5786;DHT22;2919;48.630;9.000;2023-07-30T04:12:48;16.40;99.90
5786;DHT22;2919;48.630;9.000;2023-07-30T04:15:15;16.50;99.90
5786;DHT22;2919;48.630;9.000;2023-07-30T04:17:41;16.50;99.90
5786;DHT22;2919;48.630;9.000;2023-07-30T04:20:07;16.50;99.90
5786;DHT22;2919;48.630;9.000;2023-07-30T04:22:33;16.40;99.90
5786;DHT22;2919;48.630;9.000;2023-07-30T04:24:58;16.40;99.90
5786;DHT22;2919;48.630;9.000;2023-07-30T04:27:24;16.40;99.90
5786;DHT22;2919;48.630;9.000;2023-07-30T04:29:49;16.40;99.90
5786;DHT22;2919;48.630;9.000;2023-07-30T04:32:15;16.40;99.90
5786;DHT22;2919;48.630;9.000;2023-07-30T04:34:41;16.40;99.90
5786;DHT22;2919;48.630;9.000;2023-07-30T04:37:06;16.40;99.90
5786;DHT22;2919;48.630;9.000;2023-07-30T04:39:32;16.40;99.90
5786;DHT22;2919;48.630;9.000;2023-07-30T04:41:58;16.40;99.90
5786;DHT22;2919;48.630;9.000;2023-07-30T04:44:24;16.40;99.90
5786;DHT22;2919;48.630;9.000;2023-07-30T04:46:50;16.50;99.90
5786;DHT22;2919;48.630;9.000;2023-07-30T04:49:15;16.50;99.90
5786;DHT22;2919;48.630;9.000;2023-07-30T04:51:41;16.50;99.90
5786;DHT22;2919;48.630;9.000;2023-07-30T04:54:06;16.50;99.90
5786;DHT22;2919;48.630;9.000;2023-07-30T04:56:32;16.50;99.90
5786;DHT22;2919;48.630;9.000;2023-07-30T04:58:58;16.50;99.90
5786;DHT22;2919;48.630;9.000;2023-07-30T05:01:26;16.50;99.90
5786;DHT22;2919;48.630;9.000;2023-07-30T05:03:52;16.60;99.90
5786;DHT22;2919;48.630;9.000;2023-07-30T05:06:18;16.60;99.90
5786;DHT22;2919;48.630;9.000;2023-07-30T05:08:43;16.60;99.90
5786;DHT22;2919;48.630;9.000;2023-07-30T05:11:09;16.70;99.90
5786;DHT22;2919;48.630;9.000;2023-07-30T05:13:35;16.70;99.90
5786;DHT22;2919;48.630;9.000;2023-07-30T05:16:00;16.70;99.90
5786;DHT22;2919;48.630;9.000;2023-07-30T05:18:27;16.80;99.90
5786;DHT22;2919;48.630;9.000;2023-07-30T05:20:52;16.80;99.90
5786;DHT22;2919;48.630;9.000;2023-07-30T05:23:18;16.70;99.90
5786;DHT22;2919;48.630;9.000;2023-07-30T05:25:43;16.60;99.90
5786;DHT22;2919;48.630;9.000;2023-07-30T05:28:09;16.60;99.90
5786;DHT22;2919;48.630;9.000;2023-07-30T05:30:35;16.60;99.90
5786;DHT22;2919;48.630;9.000;2023-07-30T05:33:00;16.50;99.90
5786;DHT22;2919;48.630;9.000;2023-07-30T05:35:26;16.50;99.90
5786;DHT22;2919;48.630;9.000;2023-07-30T05:37:52;16.50;99.90
5786;DHT22;2919;48.630;9.000;2023-07-30T05:40:18;16.50;99.90
5786;DHT22;2919;48.630;9.000;2023-07-30T05:42:43;16.50;99.90
5786;DHT22;2919;48.630;9.000;2023-07-30T05:45:10;16.50;99.90
5786;DHT22;2919;48.630;9.000;2023-07-30T05:47:35;16.50;99.90
5786;DHT22;2919;48.630;9.000;2023-07-30T05:50:02;16.50;99.90
5786;DHT22;2919;48.630;9.000;2023-07-30T05:52:28;16.50;99.90
5786;DHT22;2919;48.630;9.000;2023-07-30T05:54:53;16.60;99.90
5786;DHT22;2919;48.630;9.000;2023-07-30T05:57:19;16.60;99.90
5786;DHT22;2919;48.630;9.000;2023-07-30T05:59:44;16.60;99.90
5786;DHT22;2919;48.630;9.000;2023-07-30T06:02:10;16.60;99.90
5786;DHT22;2919;48.630;9.000;2023-07-30T06:04:36;16.60;99.90
5786;DHT22;2919;48.630;9.000;2023-07-30T06:07:03;16.60;99.90
5786;DHT22;2919;48.630;9.000;2023-07-30T06:09:28;16.70;99.90
5786;DHT22;2919;48.630;9.000;2023-07-30T06:11:56;16.70;99.90
5786;DHT22;2919;48.630;9.000;2023-07-30T06:14:22;16.80;99.90
5786;DHT22;2919;48.630;9.000;2023-07-30T06:16:47;16.90;99.90
5786;DHT22;2919;48.630;9.000;2023-07-30T06:19:13;16.90;99.90
5786;DHT22;2919;48.630;9.000;2023-07-30T06:21:38;17.00;99.90
5786;DHT22;2919;48.630;9.000;2023-07-30T06:24:04;17.00;99.90
5786;DHT22;2919;48.630;9.000;2023-07-30T06:26:30;17.00;99.90
5786;DHT22;2919;48.630;9.000;2023-07-30T06:28:55;17.00;99.90
5786;DHT22;2919;48.630;9.000;2023-07-30T06:31:21;17.10;99.90
5786;DHT22;2919;48.630;9.000;2023-07-30T06:33:47;17.10;99.90
5786;DHT22;2919;48.630;9.000;2023-07-30T06:36:12;17.30;99.90
5786;DHT22;2919;48.630;9.000;2023-07-30T06:38:38;17.40;99.90
5786;DHT22;2919;48.630;9.000;2023-07-30T06:41:03;17.50;99.90
5786;DHT22;2919;48.630;9.000;2023-07-30T06:43:29;17.50;99.90
5786;DHT22;2919;48.630;9.000;2023-07-30T06:45:55;17.70;99.90
5786;DHT22;2919;48.630;9.000;2023-07-30T06:48:20;17.80;99.90
5786;DHT22;2919;48.630;9.000;2023-07-30T06:50:46;17.80;99.90
5786;DHT22;2919;48.630;9.000;2023-07-30T06:53:12;17.80;99.90
5786;DHT22;2919;48.630;9.000;2023-07-30T06:55:37;17.70;99.90
5786;DHT22;2919;48.630;9.000;2023-07-30T06:58:03;17.80;99.90
5786;DHT22;2919;48.630;9.000;2023-07-30T07:00:29;17.80;99.90
5786;DHT22;2919;48.630;9.000;2023-07-30T07:02:54;17.70;99.90
5786;DHT22;2919;48.630;9.000;2023-07-30T07:05:20;17.80;99.90
5786;DHT22;2919;48.630;9.000;2023-07-30T07:07:46;17.70;99.90
5786;DHT22;2919;48.630;9.000;2023-07-30T07:10:11;17.60;99.90
5786;DHT22;2919;48.630;9.000;2023-07-30T07:12:38;17.60;99.90
5786;DHT22;2919;48.630;9.000;2023-07-30T07:15:05;17.50;99.90
5786;DHT22;2919;48.630;9.000;2023-07-30T07:17:31;17.30;99.90
5786;DHT22;2919;48.630;9.000;2023-07-30T07:19:57;17.10;99.90
5786;DHT22;2919;48.630;9.000;2023-07-30T07:22:23;17.00;99.90
5786;DHT22;2919;48.630;9.000;2023-07-30T07:24:49;16.90;99.90
5786;DHT22;2919;48.630;9.000;2023-07-30T07:27:17;16.90;99.90
5786;DHT22;2919;48.630;9.000;2023-07-30T07:29:43;16.90;99.90
5786;DHT22;2919;48.630;9.000;2023-07-30T07:32:09;17.00;99.90
5786;DHT22;2919;48.630;9.000;2023-07-30T07:34:34;17.10;99.90
5786;DHT22;2919;48.630;9.000;2023-07-30T07:37:01;17.20;99.90
5786;DHT22;2919;48.630;9.000;2023-07-30T07:39:27;17.30;99.90
5786;DHT22;2919;48.630;9.000;2023-07-30T07:41:52;17.30;99.90
5786;DHT22;2919;48.630;9.000;2023-07-30T07:44:18;17.30;99.90
5786;DHT22;2919;48.630;9.000;2023-07-30T07:46:44;17.30;99.90
5786;DHT22;2919;48.630;9.000;2023-07-30T07:49:09;17.30;99.90
5786;DHT22;2919;48.630;9.000;2023-07-30T07:51:35;17.30;99.90
5786;DHT22;2919;48.630;9.000;2023-07-30T07:54:01;17.40;99.90
5786;DHT22;2919;48.630;9.000;2023-07-30T07:56:26;17.40;99.90
5786;DHT22;2919;48.630;9.000;2023-07-30T07:58:52;17.50;99.90
5786;DHT22;2919;48.630;9.000;2023-07-30T08:01:18;17.50;99.90
5786;DHT22;2919;48.630;9.000;2023-07-30T08:03:44;17.60;99.90
5786;DHT22;2919;48.630;9.000;2023-07-30T08:06:09;17.70;99.90
5786;DHT22;2919;48.630;9.000;2023-07-30T08:08:35;17.90;99.90
5786;DHT22;2919;48.630;9.000;2023-07-30T08:11:05;18.10;99.90
5786;DHT22;2919;48.630;9.000;2023-07-30T08:13:32;18.50;99.90
5786;DHT22;2919;48.630;9.000;2023-07-30T08:15:57;18.80;99.90
5786;DHT22;2919;48.630;9.000;2023-07-30T08:18:23;19.20;99.90
5786;DHT22;2919;48.630;9.000;2023-07-30T08:20:49;19.60;99.90
5786;DHT22;2919;48.630;9.000;2023-07-30T08:23:15;20.00;99.90
5786;DHT22;2919;48.630;9.000;2023-07-30T08:25:41;20.30;99.90
5786;DHT22;2919;48.630;9.000;2023-07-30T08:28:06;20.50;99.90
5786;DHT22;2919;48.630;9.000;2023-07-30T08:30:32;20.50;99.90
5786;DHT22;2919;48.630;9.000;2023-07-30T08:32:57;20.40;99.90
5786;DHT22;2919;48.630;9.000;2023-07-30T08:35:23;20.60;99.90
5786;DHT22;2919;48.630;9.000;2023-07-30T08:37:49;20.50;99.90
5786;DHT22;2919;48.630;9.000;2023-07-30T08:40:14;20.90;99.90
5786;DHT22;2919;48.630;9.000;2023-07-30T08:42:41;21.00;99.90
5786;DHT22;2919;48.630;9.000;2023-07-30T08:45:07;21.10;99.90
5786;DHT22;2919;48.630;9.000;2023-07-30T08:47:35;21.20;99.90
5786;DHT22;2919;48.630;9.000;2023-07-30T08:50:01;21.20;99.90
5786;DHT22;2919;48.630;9.000;2023-07-30T08:52:29;21.30;99.90
5786;DHT22;2919;48.630;9.000;2023-07-30T08:54:57;21.30;99.90
5786;DHT22;2919;48.630;9.000;2023-07-30T08:57:26;21.50;99.90
5786;DHT22;2919;48.630;9.000;2023-07-30T09:00:11;21.30;99.90
5786;DHT22;2919;48.630;9.000;2023-07-30T09:02:44;21.50;99.90
5786;DHT22;2919;48.630;9.000;2023-07-30T09:05:12;21.10;99.90
5786;DHT22;2919;48.630;9.000;2023-07-30T09:07:38;20.90;99.90
5786;DHT22;2919;48.630;9.000;2023-07-30T09:10:05;20.80;99.90
5786;DHT22;2919;48.630;9.000;2023-07-30T09:12:34;20.40;99.90
5786;DHT22;2919;48.630;9.000;2023-07-30T09:15:02;20.20;99.90
5786;DHT22;2919;48.630;9.000;2023-07-30T09:17:30;20.30;99.90
5786;DHT22;2919;48.630;9.000;2023-07-30T09:19:55;20.10;99.90
5786;DHT22;2919;48.630;9.000;2023-07-30T09:22:27;20.00;99.90
5786;DHT22;2919;48.630;9.000;2023-07-30T09:24:54;19.90;99.90
5786;DHT22;2919;48.630;9.000;2023-07-30T09:27:24;19.60;99.90
5786;DHT22;2919;48.630;9.000;2023-07-30T09:29:54;19.20;99.90
5786;DHT22;2919;48.630;9.000;2023-07-30T09:32:24;18.70;99.90
5786;DHT22;2919;48.630;9.000;2023-07-30T09:34:50;18.10;99.90
5786;DHT22;2919;48.630;9.000;2023-07-30T09:37:16;17.70;99.90
5786;DHT22;2919;48.630;9.000;2023-07-30T09:39:42;17.50;99.90
5786;DHT22;2919;48.630;9.000;2023-07-30T09:42:07;17.50;99.90
5786;DHT22;2919;48.630;9.000;2023-07-30T09:44:33;17.50;99.90
5786;DHT22;2919;48.630;9.000;2023-07-30T09:47:00;17.60;99.90
5786;DHT22;2919;48.630;9.000;2023-07-30T09:49:30;17.60;99.90
5786;DHT22;2919;48.630;9.000;2023-07-30T09:51:56;17.70;99.90
5786;DHT22;2919;48.630;9.000;2023-07-30T09:54:23;17.80;99.90
5786;DHT22;2919;48.630;9.000;2023-07-30T09:56:49;18.00;99.90
5786;DHT22;2919;48.630;9.000;2023-07-30T09:59:14;18.20;99.90
5786;DHT22;2919;48.630;9.000;2023-07-30T10:01:48;18.50;99.90
5786;DHT22;2919;48.630;9.000;2023-07-30T10:04:20;19.10;99.90
5786;DHT22;2919;48.630;9.000;2023-07-30T10:06:52;19.60;99.90
5786;DHT22;2919;48.630;9.000;2023-07-30T10:09:20;19.80;99.90
5786;DHT22;2919;48.630;9.000;2023-07-30T10:11:48;19.90;99.90
5786;DHT22;2919;48.630;9.000;2023-07-30T10:14:17;20.20;99.90
5786;DHT22;2919;48.630;9.000;2023-07-30T10:16:55;20.30;99.90
5786;DHT22;2919;48.630;9.000;2023-07-30T10:19:25;20.60;99.90
5786;DHT22;2919;48.630;9.000;2023-07-30T10:21:53;20.90;99.90
5786;DHT22;2919;48.630;9.000;2023-07-30T10:24:19;20.70;99.90
5786;DHT22;2919;48.630;9.000;2023-07-30T10:26:44;20.60;99.90
5786;DHT22;2919;48.630;9.000;2023-07-30T10:31:43;20.40;99.90
5786;DHT22;2919;48.630;9.000;2023-07-30T10:34:10;20.50;99.90
5786;DHT22;2919;48.630;9.000;2023-07-30T10:36:41;20.50;99.90
5786;DHT22;2919;48.630;9.000;2023-07-30T10:39:18;20.60;99.90
5786;DHT22;2919;48.630;9.000;2023-07-30T10:41:50;20.60;99.90
5786;DHT22;2919;48.630;9.000;2023-07-30T10:44:27;20.80;99.90
5786;DHT22;2919;48.630;9.000;2023-07-30T10:46:54;20.90;99.90
5786;DHT22;2919;48.630;9.000;2023-07-30T10:49:19;21.10;99.90
5786;DHT22;2919;48.630;9.000;2023-07-30T10:51:45;21.30;99.90
5786;DHT22;2919;48.630;9.000;2023-07-30T10:54:11;21.60;99.90
5786;DHT22;2919;48.630;9.000;2023-07-30T10:56:37;21.60;99.90
5786;DHT22;2919;48.630;9.000;2023-07-30T10:59:04;21.60;99.90
5786;DHT22;2919;48.630;9.000;2023-07-30T11:01:40;21.80;99.90
5786;DHT22;2919;48.630;9.000;2023-07-30T11:04:08;21.90;99.90
5786;DHT22;2919;48.630;9.000;2023-07-30T11:06:33;21.60;99.90
5786;DHT22;2919;48.630;9.000;2023-07-30T11:08:59;21.20;99.90
5786;DHT22;2919;48.630;9.000;2023-07-30T11:11:24;21.10;99.90
5786;DHT22;2919;48.630;9.000;2023-07-30T11:13:51;21.00;99.90
5786;DHT22;2919;48.630;9.000;2023-07-30T11:16:17;21.10;99.90
5786;DHT22;2919;48.630;9.000;2023-07-30T11:18:43;21.20;99.90
5786;DHT22;2919;48.630;9.000;2023-07-30T11:21:11;21.30;99.90
5786;DHT22;2919;48.630;9.000;2023-07-30T11:23:38;21.50;99.90
5786;DHT22;2919;48.630;9.000;2023-07-30T11:26:06;21.50;99.90
5786;DHT22;2919;48.630;9.000;2023-07-30T11:28:39;21.60;99.50
5786;DHT22;2919;48.630;9.000;2023-07-30T11:33:42;21.70;99.00
5786;DHT22;2919;48.630;9.000;2023-07-30T11:36:14;21.90;99.90
5786;DHT22;2919;48.630;9.000;2023-07-30T11:38:40;22.00;98.50
5786;DHT22;2919;48.630;9.000;2023-07-30T11:41:07;22.30;98.00
5786;DHT22;2919;48.630;9.000;2023-07-30T11:43:39;22.10;97.10
5786;DHT22;2919;48.630;9.000;2023-07-30T11:46:10;22.10;96.80
5786;DHT22;2919;48.630;9.000;2023-07-30T11:48:37;22.30;95.90
5786;DHT22;2919;48.630;9.000;2023-07-30T11:51:03;22.10;96.00
5786;DHT22;2919;48.630;9.000;2023-07-30T11:58:50;22.10;97.60
5786;DHT22;2919;48.630;9.000;2023-07-30T12:01:17;22.30;97.00
5786;DHT22;2919;48.630;9.000;2023-07-30T12:03:43;22.60;96.40
5786;DHT22;2919;48.630;9.000;2023-07-30T12:06:10;22.90;97.30
5786;DHT22;2919;48.630;9.000;2023-07-30T12:08:36;23.00;95.60
5786;DHT22;2919;48.630;9.000;2023-07-30T12:11:09;23.00;93.60
5786;DHT22;2919;48.630;9.000;2023-07-30T12:13:43;23.10;94.50
5786;DHT22;2919;48.630;9.000;2023-07-30T12:16:11;23.10;93.80
5786;DHT22;2919;48.630;9.000;2023-07-30T12:18:37;23.10;93.70
5786;DHT22;2919;48.630;9.000;2023-07-30T12:21:03;23.10;94.70
5786;DHT22;2919;48.630;9.000;2023-07-30T12:23:32;23.20;92.90
5786;DHT22;2919;48.630;9.000;2023-07-30T12:25:57;23.00;94.10
5786;DHT22;2919;48.630;9.000;2023-07-30T12:28:23;23.10;92.90
5786;DHT22;2919;48.630;9.000;2023-07-30T12:30:48;22.70;95.70
5786;DHT22;2919;48.630;9.000;2023-07-30T12:33:14;22.60;96.90
5786;DHT22;2919;48.630;9.000;2023-07-30T12:35:40;22.40;97.10
5786;DHT22;2919;48.630;9.000;2023-07-30T12:38:05;22.40;97.60
5786;DHT22;2919;48.630;9.000;2023-07-30T12:40:31;22.20;97.60
5786;DHT22;2919;48.630;9.000;2023-07-30T12:43:01;21.80;98.30
5786;DHT22;2919;48.630;9.000;2023-07-30T12:45:27;21.40;98.90
5786;DHT22;2919;48.630;9.000;2023-07-30T12:47:53;21.40;99.90
5786;DHT22;2919;48.630;9.000;2023-07-30T12:50:18;21.20;99.20
5786;DHT22;2919;48.630;9.000;2023-07-30T12:52:44;21.40;99.10
5786;DHT22;2919;48.630;9.000;2023-07-30T12:55:09;21.50;98.00
5786;DHT22;2919;48.630;9.000;2023-07-30T12:57:35;21.60;98.10
5786;DHT22;2919;48.630;9.000;2023-07-30T13:00:02;21.60;98.30
5786;DHT22;2919;48.630;9.000;2023-07-30T13:02:30;21.70;98.90
5786;DHT22;2919;48.630;9.000;2023-07-30T13:04:58;22.00;98.80
5786;DHT22;2919;48.630;9.000;2023-07-30T13:07:24;22.20;96.90
5786;DHT22;2919;48.630;9.000;2023-07-30T13:10:10;22.40;96.90
5786;DHT22;2919;48.630;9.000;2023-07-30T13:12:36;22.60;96.50
5786;DHT22;2919;48.630;9.000;2023-07-30T13:15:02;22.50;96.40
5786;DHT22;2919;48.630;9.000;2023-07-30T13:17:28;22.40;95.60
5786;DHT22;2919;48.630;9.000;2023-07-30T13:19:54;22.30;96.00
5786;DHT22;2919;48.630;9.000;2023-07-30T13:22:20;22.30;95.10
5786;DHT22;2919;48.630;9.000;2023-07-30T13:24:45;22.20;95.80
5786;DHT22;2919;48.630;9.000;2023-07-30T13:27:11;21.90;96.40
5786;DHT22;2919;48.630;9.000;2023-07-30T13:29:37;21.60;96.80
5786;DHT22;2919;48.630;9.000;2023-07-30T13:32:02;21.50;96.10
5786;DHT22;2919;48.630;9.000;2023-07-30T13:34:28;21.40;96.70
5786;DHT22;2919;48.630;9.000;2023-07-30T13:36:53;22.00;97.50
5786;DHT22;2919;48.630;9.000;2023-07-30T13:39:19;22.20;96.30
5786;DHT22;2919;48.630;9.000;2023-07-30T13:41:45;22.40;96.40
5786;DHT22;2919;48.630;9.000;2023-07-30T13:44:10;22.60;96.30
5786;DHT22;2919;48.630;9.000;2023-07-30T13:46:37;22.60;96.40
5786;DHT22;2919;48.630;9.000;2023-07-30T13:49:04;22.90;97.00
5786;DHT22;2919;48.630;9.000;2023-07-30T13:51:29;23.10;94.70
5786;DHT22;2919;48.630;9.000;2023-07-30T13:53:58;22.70;95.10
5786;DHT22;2919;48.630;9.000;2023-07-30T13:56:26;22.50;94.90
5786;DHT22;2919;48.630;9.000;2023-07-30T13:58:51;22.10;94.90
5786;DHT22;2919;48.630;9.000;2023-07-30T14:01:17;21.80;95.30
5786;DHT22;2919;48.630;9.000;2023-07-30T14:03:43;21.70;95.40
5786;DHT22;2919;48.630;9.000;2023-07-30T14:06:09;21.40;96.90
5786;DHT22;2919;48.630;9.000;2023-07-30T14:08:34;21.50;97.40
5786;DHT22;2919;48.630;9.000;2023-07-30T14:11:00;21.70;96.20
5786;DHT22;2919;48.630;9.000;2023-07-30T14:13:26;21.60;96.60
5786;DHT22;2919;48.630;9.000;2023-07-30T14:15:52;21.80;96.00
5786;DHT22;2919;48.630;9.000;2023-07-30T14:18:17;22.10;95.20
5786;DHT22;2919;48.630;9.000;2023-07-30T14:20:43;22.20;94.90
5786;DHT22;2919;48.630;9.000;2023-07-30T14:23:09;22.20;94.30
5786;DHT22;2919;48.630;9.000;2023-07-30T14:25:35;22.10;96.70
5786;DHT22;2919;48.630;9.000;2023-07-30T14:28:00;22.00;94.90
5786;DHT22;2919;48.630;9.000;2023-07-30T14:30:26;22.00;94.60
5786;DHT22;2919;48.630;9.000;2023-07-30T14:32:52;21.60;96.00
5786;DHT22;2919;48.630;9.000;2023-07-30T14:35:17;21.70;95.80
5786;DHT22;2919;48.630;9.000;2023-07-30T14:37:43;21.60;95.70
5786;DHT22;2919;48.630;9.000;2023-07-30T14:40:09;21.50;95.00
5786;DHT22;2919;48.630;9.000;2023-07-30T14:42:35;21.60;94.70
5786;DHT22;2919;48.630;9.000;2023-07-30T14:45:00;21.30;94.90
5786;DHT22;2919;48.630;9.000;2023-07-30T14:47:26;21.30;96.00
5786;DHT22;2919;48.630;9.000;2023-07-30T14:49:52;21.40;94.70
5786;DHT22;2919;48.630;9.000;2023-07-30T14:52:17;21.40;96.70
5786;DHT22;2919;48.630;9.000;2023-07-30T14:54:44;21.60;95.50
5786;DHT22;2919;48.630;9.000;2023-07-30T14:57:10;21.90;95.30
5786;DHT22;2919;48.630;9.000;2023-07-30T14:59:35;22.00;94.00
5786;DHT22;2919;48.630;9.000;2023-07-30T15:02:01;21.90;93.60
5786;DHT22;2919;48.630;9.000;2023-07-30T15:04:27;21.90;94.20
5786;DHT22;2919;48.630;9.000;2023-07-30T15:06:52;21.80;94.50
5786;DHT22;2919;48.630;9.000;2023-07-30T15:09:18;21.70;94.80
5786;DHT22;2919;48.630;9.000;2023-07-30T15:11:43;21.70;94.10
5786;DHT22;2919;48.630;9.000;2023-07-30T15:14:09;21.60;93.80
5786;DHT22;2919;48.630;9.000;2023-07-30T15:16:34;21.60;93.70
5786;DHT22;2919;48.630;9.000;2023-07-30T15:19:00;21.50;94.40
5786;DHT22;2919;48.630;9.000;2023-07-30T15:21:26;21.40;94.30
5786;DHT22;2919;48.630;9.000;2023-07-30T15:23:51;21.40;94.20
5786;DHT22;2919;48.630;9.000;2023-07-30T15:26:17;21.40;94.50
5786;DHT22;2919;48.630;9.000;2023-07-30T15:28:43;21.40;93.70
5786;DHT22;2919;48.630;9.000;2023-07-30T15:31:08;21.30;92.70
5786;DHT22;2919;48.630;9.000;2023-07-30T15:33:34;21.30;93.10
5786;DHT22;2919;48.630;9.000;2023-07-30T15:36:00;21.10;93.90
5786;DHT22;2919;48.630;9.000;2023-07-30T15:38:25;21.10;94.10
5786;DHT22;2919;48.630;9.000;2023-07-30T15:40:51;20.80;93.50
5786;DHT22;2919;48.630;9.000;2023-07-30T15:43:16;20.70;93.80
5786;DHT22;2919;48.630;9.000;2023-07-30T15:45:42;20.50;93.60
5786;DHT22;2919;48.630;9.000;2023-07-30T15:48:12;20.60;92.50
5786;DHT22;2919;48.630;9.000;2023-07-30T15:50:38;20.80;93.10
5786;DHT22;2919;48.630;9.000;2023-07-30T15:53:04;21.10;92.70
5786;DHT22;2919;48.630;9.000;2023-07-30T15:55:32;21.30;91.30
5786;DHT22;2919;48.630;9.000;2023-07-30T15:57:58;21.40;92.00
5786;DHT22;2919;48.630;9.000;2023-07-30T16:00:25;21.30;91.00
5786;DHT22;2919;48.630;9.000;2023-07-30T16:02:50;21.10;91.30
5786;DHT22;2919;48.630;9.000;2023-07-30T16:05:16;21.00;90.60
5786;DHT22;2919;48.630;9.000;2023-07-30T16:07:42;20.90;90.50